sensor_id;sensor_type;location;lat;lon;timestamp;pressure;altitude;pressure_sealevel;temperature;humidity
10310;BME280;5200;43.236;27.986;2023-05-20T00:00:55;100041.75;;;16.15;84.50
10310;BME280;5200;43.236;27.986;2023-05-20T00:03:22;100041.75;;;16.15;84.75
10310;BME280;5200;43.236;27.986;2023-05-20T00:05:48;100049.38;;;16.18;85.41
10310;BME280;5200;43.236;27.986;2023-05-20T00:08:17;100062.25;;;16.29;85.44
10310;BME280;5200;43.236;27.986;2023-05-20T00:10:44;100045.41;;;16.14;85.71
10310;BME280;5200;43.236;27.986;2023-05-20T00:13:12;100073.06;;;16.27;85.84
10310;BME280;5200;43.236;27.986;2023-05-20T00:15:39;100072.09;;;16.20;86.18
10310;BME280;5200;43.236;27.986;2023-05-20T00:18:06;100067.13;;;16.17;86.93
10310;BME280;5200;43.236;27.986;2023-05-20T00:20:33;100051.56;;;16.06;87.33
10310;BME280;5200;43.236;27.986;2023-05-20T00:23:00;100036.56;;;15.90;87.99
10310;BME280;5200;43.236;27.986;2023-05-20T00:25:27;100031.94;;;15.84;88.75
10310;BME280;5200;43.236;27.986;2023-05-20T00:27:55;100061.22;;;15.99;89.47
10310;BME280;5200;43.236;27.986;2023-05-20T00:30:24;100024.16;;;15.74;89.97
10310;BME280;5200;43.236;27.986;2023-05-20T00:32:50;100067.69;;;15.96;90.27
10310;BME280;5200;43.236;27.986;2023-05-20T00:35:17;100029.28;;;15.84;90.57
10310;BME280;5200;43.236;27.986;2023-05-20T00:37:44;100048.13;;;15.97;90.57
10310;BME280;5200;43.236;27.986;2023-05-20T00:40:11;100028.28;;;15.85;91.09
10310;BME280;5200;43.236;27.986;2023-05-20T00:42:38;100048.91;;;16.06;91.42
10310;BME280;5200;43.236;27.986;2023-05-20T00:45:06;100023.28;;;15.90;91.58
10310;BME280;5200;43.236;27.986;2023-05-20T00:47:34;100029.56;;;15.97;91.84
10310;BME280;5200;43.236;27.986;2023-05-20T00:50:02;100029.19;;;16.09;91.80
10310;BME280;5200;43.236;27.986;2023-05-20T00:52:30;100045.75;;;16.11;92.15
10310;BME280;5200;43.236;27.986;2023-05-20T00:54:58;100006.34;;;15.91;92.58
10310;BME280;5200;43.236;27.986;2023-05-20T00:57:26;100038.44;;;16.13;92.74
10310;BME280;5200;43.236;27.986;2023-05-20T00:59:53;100045.41;;;16.14;93.16
10310;BME280;5200;43.236;27.986;2023-05-20T01:02:20;100035.78;;;16.13;93.87
10310;BME280;5200;43.236;27.986;2023-05-20T01:04:48;100042.94;;;16.12;93.96
10310;BME280;5200;43.236;27.986;2023-05-20T01:07:17;100023.56;;;16.03;94.29
10310;BME280;5200;43.236;27.986;2023-05-20T01:09:45;100041.44;;;16.10;94.86
10310;BME280;5200;43.236;27.986;2023-05-20T01:12:15;100029.19;;;16.09;95.44
10310;BME280;5200;43.236;27.986;2023-05-20T01:14:46;100030.84;;;16.10;95.82
10310;BME280;5200;43.236;27.986;2023-05-20T01:17:14;100015.28;;;15.98;96.30
10310;BME280;5200;43.236;27.986;2023-05-20T01:19:43;100006.66;;;15.96;96.33
10310;BME280;5200;43.236;27.986;2023-05-20T01:22:13;100018.09;;;16.05;96.75
10310;BME280;5200;43.236;27.986;2023-05-20T01:24:44;100013.66;;;15.97;97.17
10310;BME280;5200;43.236;27.986;2023-05-20T01:27:12;100007.03;;;15.93;97.14
10310;BME280;5200;43.236;27.986;2023-05-20T01:29:40;100037.47;;;16.14;96.60
10310;BME280;5200;43.236;27.986;2023-05-20T01:32:10;100010.94;;;16.05;96.38
10310;BME280;5200;43.236;27.986;2023-05-20T01:34:38;100009.09;;;16.06;95.97
10310;BME280;5200;43.236;27.986;2023-05-20T01:37:07;100014.56;;;16.13;95.85
10310;BME280;5200;43.236;27.986;2023-05-20T01:39:35;100031.13;;;16.23;96.25
10310;BME280;5200;43.236;27.986;2023-05-20T01:42:08;100014.25;;;16.08;96.40
10310;BME280;5200;43.236;27.986;2023-05-20T01:44:36;100042.91;;;16.20;96.67
10310;BME280;5200;43.236;27.986;2023-05-20T01:47:03;100010.47;;;16.02;96.99
10310;BME280;5200;43.236;27.986;2023-05-20T01:49:30;100027.16;;;16.11;97.06
10310;BME280;5200;43.236;27.986;2023-05-20T01:51:57;100029.34;;;16.07;96.89
10310;BME280;5200;43.236;27.986;2023-05-20T01:54:24;100005.19;;;15.94;97.04
10310;BME280;5200;43.236;27.986;2023-05-20T01:56:51;100036.59;;;16.13;97.08
10310;BME280;5200;43.236;27.986;2023-05-20T01:59:19;100025.91;;;15.98;97.32
10310;BME280;5200;43.236;27.986;2023-05-20T02:01:46;100026.59;;;15.92;97.82
10310;BME280;5200;43.236;27.986;2023-05-20T02:04:13;100007.59;;;15.80;98.72
10310;BME280;5200;43.236;27.986;2023-05-20T02:06:40;100034.56;;;15.92;99.68
10310;BME280;5200;43.236;27.986;2023-05-20T02:09:07;100013.06;;;15.79;100.00
10310;BME280;5200;43.236;27.986;2023-05-20T02:11:33;100055.59;;;15.94;100.00
10310;BME280;5200;43.236;27.986;2023-05-20T02:14:00;100046.19;;;15.83;100.00
10310;BME280;5200;43.236;27.986;2023-05-20T02:16:28;100024.53;;;15.71;100.00
10310;BME280;5200;43.236;27.986;2023-05-20T02:18:55;100053.97;;;15.84;100.00
10310;BME280;5200;43.236;27.986;2023-05-20T02:21:23;100052.19;;;15.77;100.00
10310;BME280;5200;43.236;27.986;2023-05-20T02:23:49;100061.47;;;15.81;100.00
10310;BME280;5200;43.236;27.986;2023-05-20T02:26:16;100038.41;;;15.65;100.00
10310;BME280;5200;43.236;27.986;2023-05-20T02:28:44;100033.28;;;15.63;100.00
10310;BME280;5200;43.236;27.986;2023-05-20T02:31:15;100021.19;;;15.61;100.00
10310;BME280;5200;43.236;27.986;2023-05-20T02:33:43;100055.97;;;15.82;100.00
10310;BME280;5200;43.236;27.986;2023-05-20T02:36:10;100054.81;;;15.85;100.00
10310;BME280;5200;43.236;27.986;2023-05-20T02:38:37;100061.09;;;15.84;100.00
10310;BME280;5200;43.236;27.986;2023-05-20T02:41:03;100030.31;;;15.67;100.00
10310;BME280;5200;43.236;27.986;2023-05-20T02:43:31;100050.84;;;15.81;100.00
10310;BME280;5200;43.236;27.986;2023-05-20T02:45:58;100061.09;;;15.84;100.00
10310;BME280;5200;43.236;27.986;2023-05-20T02:48:25;100035.94;;;15.63;100.00
10310;BME280;5200;43.236;27.986;2023-05-20T02:50:54;100036.94;;;15.62;100.00
10310;BME280;5200;43.236;27.986;2023-05-20T02:53:21;100061.66;;;15.71;100.00
10310;BME280;5200;43.236;27.986;2023-05-20T02:55:48;100041.72;;;15.59;100.00
10310;BME280;5200;43.236;27.986;2023-05-20T02:58:15;100063.44;;;15.79;100.00
10310;BME280;5200;43.236;27.986;2023-05-20T03:00:43;100050.34;;;15.69;100.00
10310;BME280;5200;43.236;27.986;2023-05-20T03:03:09;100056.16;;;15.64;100.00
10310;BME280;5200;43.236;27.986;2023-05-20T03:05:37;100084.97;;;15.84;100.00
10310;BME280;5200;43.236;27.986;2023-05-20T03:08:09;100054.16;;;15.67;100.00
10310;BME280;5200;43.236;27.986;2023-05-20T03:10:36;100052.19;;;15.69;100.00
10310;BME280;5200;43.236;27.986;2023-05-20T03:13:03;100047.88;;;15.59;100.00
10310;BME280;5200;43.236;27.986;2023-05-20T03:15:33;100043.38;;;15.68;100.00
10310;BME280;5200;43.236;27.986;2023-05-20T03:17:59;100049.88;;;15.74;100.00
10310;BME280;5200;43.236;27.986;2023-05-20T03:20:26;100080.00;;;15.89;100.00
10310;BME280;5200;43.236;27.986;2023-05-20T03:22:54;100078.16;;;15.98;99.40
10310;BME280;5200;43.236;27.986;2023-05-20T03:25:23;100077.31;;;15.97;98.97
10310;BME280;5200;43.236;27.986;2023-05-20T03:27:50;100087.59;;;16.00;99.60
10310;BME280;5200;43.236;27.986;2023-05-20T03:30:17;100072.03;;;15.97;99.81
10310;BME280;5200;43.236;27.986;2023-05-20T03:32:44;100064.88;;;15.90;99.62
10310;BME280;5200;43.236;27.986;2023-05-20T03:35:11;100065.03;;;15.96;99.93
10310;BME280;5200;43.236;27.986;2023-05-20T03:37:38;100074.47;;;15.99;100.00
10310;BME280;5200;43.236;27.986;2023-05-20T03:40:06;100079.31;;;15.95;100.00
10310;BME280;5200;43.236;27.986;2023-05-20T03:42:36;100056.16;;;15.81;100.00
10310;BME280;5200;43.236;27.986;2023-05-20T03:45:04;100044.72;;;15.72;100.00
10310;BME280;5200;43.236;27.986;2023-05-20T03:47:31;100058.81;;;15.73;100.00
10310;BME280;5200;43.236;27.986;2023-05-20T03:49:58;100070.75;;;15.69;100.00
10310;BME280;5200;43.236;27.986;2023-05-20T03:52:25;100090.31;;;15.51;100.00
10310;BME280;5200;43.236;27.986;2023-05-20T03:54:52;100059.84;;;15.31;100.00
10310;BME280;5200;43.236;27.986;2023-05-20T03:57:19;100089.00;;;15.39;100.00
10310;BME280;5200;43.236;27.986;2023-05-20T03:59:47;100065.50;;;15.19;100.00
10310;BME280;5200;43.236;27.986;2023-05-20T04:02:14;100081.72;;;15.25;100.00
10310;BME280;5200;43.236;27.986;2023-05-20T04:04:41;100101.13;;;15.17;100.00
10310;BME280;5200;43.236;27.986;2023-05-20T04:07:08;100066.78;;;14.83;100.00
10310;BME280;5200;43.236;27.986;2023-05-20T04:09:36;100072.69;;;14.60;100.00
10310;BME280;5200;43.236;27.986;2023-05-20T04:12:03;100065.69;;;14.43;100.00
10310;BME280;5200;43.236;27.986;2023-05-20T04:14:30;100076.13;;;14.44;100.00
10310;BME280;5200;43.236;27.986;2023-05-20T04:17:02;100070.78;;;14.36;100.00
10310;BME280;5200;43.236;27.986;2023-05-20T04:19:30;100027.03;;;14.07;100.00
10310;BME280;5200;43.236;27.986;2023-05-20T04:21:57;100033.50;;;14.13;100.00
10310;BME280;5200;43.236;27.986;2023-05-20T04:24:24;100046.63;;;14.31;100.00
10310;BME280;5200;43.236;27.986;2023-05-20T04:26:52;100040.34;;;14.32;100.00
10310;BME280;5200;43.236;27.986;2023-05-20T04:29:19;100043.16;;;14.30;100.00
10310;BME280;5200;43.236;27.986;2023-05-20T04:31:46;100048.13;;;14.33;100.00
10310;BME280;5200;43.236;27.986;2023-05-20T04:34:14;100029.22;;;14.20;100.00
10310;BME280;5200;43.236;27.986;2023-05-20T04:36:43;100040.50;;;14.30;100.00
10310;BME280;5200;43.236;27.986;2023-05-20T04:39:10;100032.22;;;14.25;100.00
10310;BME280;5200;43.236;27.986;2023-05-20T04:41:38;100024.25;;;14.17;100.00
10310;BME280;5200;43.236;27.986;2023-05-20T04:44:05;100004.78;;;14.26;100.00
10310;BME280;5200;43.236;27.986;2023-05-20T04:46:31;100041.38;;;14.47;100.00
10310;BME280;5200;43.236;27.986;2023-05-20T04:48:58;100055.78;;;14.53;100.00
10310;BME280;5200;43.236;27.986;2023-05-20T04:51:27;100038.25;;;14.52;100.00
10310;BME280;5200;43.236;27.986;2023-05-20T04:53:54;100025.31;;;14.41;100.00
10310;BME280;5200;43.236;27.986;2023-05-20T04:56:21;100009.75;;;14.37;100.00
10310;BME280;5200;43.236;27.986;2023-05-20T04:58:48;100033.94;;;14.51;100.00
10310;BME280;5200;43.236;27.986;2023-05-20T05:01:14;100036.91;;;14.48;100.00
10310;BME280;5200;43.236;27.986;2023-05-20T05:03:41;100017.41;;;14.49;100.00
10310;BME280;5200;43.236;27.986;2023-05-20T05:06:08;100020.22;;;14.55;100.00
10310;BME280;5200;43.236;27.986;2023-05-20T05:08:36;100000.19;;;14.45;100.00
10310;BME280;5200;43.236;27.986;2023-05-20T05:11:04;100012.31;;;14.72;100.00
10310;BME280;5200;43.236;27.986;2023-05-20T05:13:31;100015.13;;;14.95;100.00
10310;BME280;5200;43.236;27.986;2023-05-20T05:15:58;99995.63;;;14.96;100.00
10310;BME280;5200;43.236;27.986;2023-05-20T05:18:25;99967.78;;;15.08;100.00
10310;BME280;5200;43.236;27.986;2023-05-20T05:20:58;100024.38;;;15.40;100.00
10310;BME280;5200;43.236;27.986;2023-05-20T05:23:25;100011.13;;;15.48;100.00
10310;BME280;5200;43.236;27.986;2023-05-20T05:25:53;100010.94;;;15.50;100.00
10310;BME280;5200;43.236;27.986;2023-05-20T05:28:20;100008.28;;;15.50;100.00
10310;BME280;5200;43.236;27.986;2023-05-20T05:30:47;99992.25;;;15.35;100.00
10310;BME280;5200;43.236;27.986;2023-05-20T05:33:14;99990.59;;;15.34;100.00
10310;BME280;5200;43.236;27.986;2023-05-20T05:35:42;100020.06;;;15.47;100.00
10310;BME280;5200;43.236;27.986;2023-05-20T05:38:09;100021.72;;;15.48;100.00
10310;BME280;5200;43.236;27.986;2023-05-20T05:40:36;99997.19;;;15.38;100.00
10310;BME280;5200;43.236;27.986;2023-05-20T05:43:04;100012.91;;;15.56;100.00
10310;BME280;5200;43.236;27.986;2023-05-20T05:45:31;100009.91;;;15.59;100.00
10310;BME280;5200;43.236;27.986;2023-05-20T05:47:57;100036.59;;;15.65;100.00
10310;BME280;5200;43.236;27.986;2023-05-20T05:50:24;100021.69;;;15.56;100.00
10310;BME280;5200;43.236;27.986;2023-05-20T05:52:51;100026.31;;;15.54;100.00
10310;BME280;5200;43.236;27.986;2023-05-20T05:55:18;100006.78;;;15.47;100.00
10310;BME280;5200;43.236;27.986;2023-05-20T05:57:45;100020.53;;;15.59;100.00
10310;BME280;5200;43.236;27.986;2023-05-20T06:00:13;99991.56;;;15.49;100.00
10310;BME280;5200;43.236;27.986;2023-05-20T06:02:40;100029.28;;;15.68;100.00
10310;BME280;5200;43.236;27.986;2023-05-20T06:05:08;100004.44;;;15.60;100.00
10310;BME280;5200;43.236;27.986;2023-05-20T06:07:35;100030.28;;;15.83;100.00
10310;BME280;5200;43.236;27.986;2023-05-20T06:10:02;100035.91;;;15.88;100.00
10310;BME280;5200;43.236;27.986;2023-05-20T06:12:29;100019.97;;;15.88;100.00
10310;BME280;5200;43.236;27.986;2023-05-20T06:14:56;99997.94;;;15.79;100.00
10310;BME280;5200;43.236;27.986;2023-05-20T06:17:24;100044.78;;;16.03;100.00
10310;BME280;5200;43.236;27.986;2023-05-20T06:19:51;100030.91;;;15.93;100.00
10310;BME280;5200;43.236;27.986;2023-05-20T06:22:18;100036.50;;;15.98;100.00
10310;BME280;5200;43.236;27.986;2023-05-20T06:24:45;100034.50;;;16.09;100.00
10310;BME280;5200;43.236;27.986;2023-05-20T06:27:11;100046.03;;;16.24;100.00
10310;BME280;5200;43.236;27.986;2023-05-20T06:29:38;100063.56;;;16.33;100.00
10310;BME280;5200;43.236;27.986;2023-05-20T06:32:05;100048.66;;;16.32;100.00
10310;BME280;5200;43.236;27.986;2023-05-20T06:34:34;100049.25;;;16.42;100.00
10310;BME280;5200;43.236;27.986;2023-05-20T06:37:01;100048.22;;;16.52;100.00
10310;BME280;5200;43.236;27.986;2023-05-20T06:39:27;100039.19;;;16.61;100.00
10310;BME280;5200;43.236;27.986;2023-05-20T06:41:54;100046.09;;;16.70;100.00
10310;BME280;5200;43.236;27.986;2023-05-20T06:44:21;100053.66;;;16.81;100.00
10310;BME280;5200;43.236;27.986;2023-05-20T06:46:48;100044.00;;;16.88;100.00
10310;BME280;5200;43.236;27.986;2023-05-20T06:49:15;100046.75;;;16.95;100.00
10310;BME280;5200;43.236;27.986;2023-05-20T06:51:43;100058.66;;;17.07;100.00
10310;BME280;5200;43.236;27.986;2023-05-20T06:54:10;100056.03;;;17.22;100.00
10310;BME280;5200;43.236;27.986;2023-05-20T06:56:37;100052.19;;;17.40;97.85
10310;BME280;5200;43.236;27.986;2023-05-20T06:59:03;100061.75;;;17.49;94.56
10310;BME280;5200;43.236;27.986;2023-05-20T07:01:30;100082.06;;;17.65;93.62
10310;BME280;5200;43.236;27.986;2023-05-20T07:03:57;100058.84;;;17.73;92.70
10310;BME280;5200;43.236;27.986;2023-05-20T07:06:24;100061.78;;;17.79;91.90
10310;BME280;5200;43.236;27.986;2023-05-20T07:08:52;100100.38;;;17.83;83.85
10310;BME280;5200;43.236;27.986;2023-05-20T07:11:19;100088.19;;;17.80;83.56
10310;BME280;5200;43.236;27.986;2023-05-20T07:13:45;100071.16;;;17.74;84.12
10310;BME280;5200;43.236;27.986;2023-05-20T07:16:12;100081.78;;;17.74;83.92
10310;BME280;5200;43.236;27.986;2023-05-20T07:18:39;100082.50;;;17.68;85.14
10310;BME280;5200;43.236;27.986;2023-05-20T07:21:06;100080.59;;;17.77;86.15
10310;BME280;5200;43.236;27.986;2023-05-20T07:23:33;100105.34;;;17.78;87.59
10310;BME280;5200;43.236;27.986;2023-05-20T07:26:01;100111.34;;;17.80;87.29
10310;BME280;5200;43.236;27.986;2023-05-20T07:28:28;100106.00;;;17.80;87.58
10310;BME280;5200;43.236;27.986;2023-05-20T07:30:55;100111.34;;;17.80;88.45
10310;BME280;5200;43.236;27.986;2023-05-20T07:33:22;100104.16;;;17.80;89.07
10310;BME280;5200;43.236;27.986;2023-05-20T07:35:49;100114.19;;;17.78;90.12
10310;BME280;5200;43.236;27.986;2023-05-20T07:38:18;100113.72;;;17.74;91.82
10310;BME280;5200;43.236;27.986;2023-05-20T07:40:45;100113.63;;;17.68;93.19
10310;BME280;5200;43.236;27.986;2023-05-20T07:43:13;100108.28;;;17.53;95.95
10310;BME280;5200;43.236;27.986;2023-05-20T07:45:41;100110.41;;;17.35;98.32
10310;BME280;5200;43.236;27.986;2023-05-20T07:48:08;100114.69;;;17.21;100.00
10310;BME280;5200;43.236;27.986;2023-05-20T07:50:35;100116.00;;;17.02;100.00
10310;BME280;5200;43.236;27.986;2023-05-20T07:53:02;100118.81;;;16.69;100.00
10310;BME280;5200;43.236;27.986;2023-05-20T07:55:29;100117.41;;;16.19;100.00
10310;BME280;5200;43.236;27.986;2023-05-20T07:57:55;100140.69;;;15.84;100.00
10310;BME280;5200;43.236;27.986;2023-05-20T08:00:24;100131.41;;;15.47;100.00
10310;BME280;5200;43.236;27.986;2023-05-20T08:02:51;100133.41;;;15.12;100.00
10310;BME280;5200;43.236;27.986;2023-05-20T08:05:18;100130.22;;;14.92;100.00
10310;BME280;5200;43.236;27.986;2023-05-20T08:07:45;100121.41;;;14.84;100.00
10310;BME280;5200;43.236;27.986;2023-05-20T08:10:11;100121.25;;;14.77;100.00
10310;BME280;5200;43.236;27.986;2023-05-20T08:12:38;100133.31;;;14.71;100.00
10310;BME280;5200;43.236;27.986;2023-05-20T08:15:06;100121.38;;;14.67;100.00
10310;BME280;5200;43.236;27.986;2023-05-20T08:17:35;100132.97;;;14.66;100.00
10310;BME280;5200;43.236;27.986;2023-05-20T08:20:03;100136.63;;;14.65;100.00
10310;BME280;5200;43.236;27.986;2023-05-20T08:22:32;100128.69;;;14.65;100.00
10310;BME280;5200;43.236;27.986;2023-05-20T08:24:59;100138.28;;;14.74;100.00
10310;BME280;5200;43.236;27.986;2023-05-20T08:27:26;100135.31;;;14.77;100.00
10310;BME280;5200;43.236;27.986;2023-05-20T08:29:52;100133.50;;;14.86;100.00
10310;BME280;5200;43.236;27.986;2023-05-20T08:32:19;100129.88;;;14.95;100.00
10310;BME280;5200;43.236;27.986;2023-05-20T08:34:47;100118.13;;;14.98;100.00
10310;BME280;5200;43.236;27.986;2023-05-20T08:37:14;100125.75;;;15.09;100.00
10310;BME280;5200;43.236;27.986;2023-05-20T08:39:41;100128.44;;;15.17;100.00
10310;BME280;5200;43.236;27.986;2023-05-20T08:42:10;100136.22;;;15.27;100.00
10310;BME280;5200;43.236;27.986;2023-05-20T08:44:39;100132.75;;;15.43;100.00
10310;BME280;5200;43.236;27.986;2023-05-20T08:47:07;100139.22;;;15.57;100.00
10310;BME280;5200;43.236;27.986;2023-05-20T08:49:34;100121.81;;;15.71;100.00
10310;BME280;5200;43.236;27.986;2023-05-20T08:52:04;100125.28;;;15.88;100.00
10310;BME280;5200;43.236;27.986;2023-05-20T08:54:41;100120.41;;;16.08;100.00
10310;BME280;5200;43.236;27.986;2023-05-20T08:57:09;100123.66;;;16.26;100.00
10310;BME280;5200;43.236;27.986;2023-05-20T08:59:40;100120.28;;;16.40;100.00
10310;BME280;5200;43.236;27.986;2023-05-20T09:02:08;100122.56;;;16.52;100.00
10310;BME280;5200;43.236;27.986;2023-05-20T09:04:35;100105.81;;;16.51;100.00
10310;BME280;5200;43.236;27.986;2023-05-20T09:07:04;100120.81;;;16.67;100.00
10310;BME280;5200;43.236;27.986;2023-05-20T09:09:32;100112.47;;;16.78;100.00
10310;BME280;5200;43.236;27.986;2023-05-20T09:11:59;100116.06;;;16.94;100.00
10310;BME280;5200;43.236;27.986;2023-05-20T09:14:27;100120.47;;;17.01;100.00
10310;BME280;5200;43.236;27.986;2023-05-20T09:16:54;100107.31;;;17.08;100.00
10310;BME280;5200;43.236;27.986;2023-05-20T09:19:21;100114.16;;;17.25;100.00
10310;BME280;5200;43.236;27.986;2023-05-20T09:21:50;100110.38;;;17.43;100.00
10310;BME280;5200;43.236;27.986;2023-05-20T09:24:22;100090.22;;;17.63;100.00
10310;BME280;5200;43.236;27.986;2023-05-20T09:26:49;100097.50;;;17.84;100.00
10310;BME280;5200;43.236;27.986;2023-05-20T09:29:16;100093.75;;;18.08;100.00
10310;BME280;5200;43.236;27.986;2023-05-20T09:31:44;100091.75;;;18.25;100.00
10310;BME280;5200;43.236;27.986;2023-05-20T09:34:11;100100.06;;;18.37;100.00
10310;BME280;5200;43.236;27.986;2023-05-20T09:36:38;100067.72;;;18.40;100.00
10310;BME280;5200;43.236;27.986;2023-05-20T09:39:07;100068.16;;;18.58;100.00
10310;BME280;5200;43.236;27.986;2023-05-20T09:41:38;100085.66;;;18.83;100.00
10310;BME280;5200;43.236;27.986;2023-05-20T09:44:10;100084.59;;;18.98;100.00
10310;BME280;5200;43.236;27.986;2023-05-20T09:46:37;100078.47;;;19.05;100.00
10310;BME280;5200;43.236;27.986;2023-05-20T09:49:06;100086.34;;;19.13;100.00
10310;BME280;5200;43.236;27.986;2023-05-20T09:51:34;100086.66;;;19.25;100.00
10310;BME280;5200;43.236;27.986;2023-05-20T09:54:01;100059.81;;;19.26;100.00
10310;BME280;5200;43.236;27.986;2023-05-20T09:56:29;100076.00;;;19.53;100.00
10310;BME280;5200;43.236;27.986;2023-05-20T09:58:59;100083.97;;;19.74;100.00
10310;BME280;5200;43.236;27.986;2023-05-20T10:01:28;100069.91;;;19.94;100.00
10310;BME280;5200;43.236;27.986;2023-05-20T10:03:55;100063.06;;;20.19;100.00
10310;BME280;5200;43.236;27.986;2023-05-20T10:06:37;100065.63;;;20.47;100.00
10310;BME280;5200;43.236;27.986;2023-05-20T10:09:23;100043.31;;;20.75;100.00
10310;BME280;5200;43.236;27.986;2023-05-20T10:11:59;100064.13;;;21.13;100.00
10310;BME280;5200;43.236;27.986;2023-05-20T10:14:39;100071.94;;;21.35;100.00
10310;BME280;5200;43.236;27.986;2023-05-20T10:17:12;100062.28;;;21.53;100.00
10310;BME280;5200;43.236;27.986;2023-05-20T10:19:42;100058.09;;;21.84;99.00
10310;BME280;5200;43.236;27.986;2023-05-20T10:22:10;100047.16;;;21.99;85.42
10310;BME280;5200;43.236;27.986;2023-05-20T10:24:40;100040.75;;;22.00;79.08
10310;BME280;5200;43.236;27.986;2023-05-20T10:27:08;100051.38;;;22.33;80.63
10310;BME280;5200;43.236;27.986;2023-05-20T10:29:44;100044.31;;;22.77;73.69
10310;BME280;5200;43.236;27.986;2023-05-20T10:32:21;100039.78;;;23.10;67.17
10310;BME280;5200;43.236;27.986;2023-05-20T10:34:50;100028.06;;;23.29;61.07
10310;BME280;5200;43.236;27.986;2023-05-20T10:37:22;100007.38;;;23.30;55.81
10310;BME280;5200;43.236;27.986;2023-05-20T10:39:50;100027.09;;;23.42;52.49
10310;BME280;5200;43.236;27.986;2023-05-20T10:42:27;100023.91;;;23.52;51.96
10310;BME280;5200;43.236;27.986;2023-05-20T10:44:56;100024.16;;;23.69;48.78
10310;BME280;5200;43.236;27.986;2023-05-20T10:47:22;100023.88;;;23.77;47.46
10310;BME280;5200;43.236;27.986;2023-05-20T10:49:49;100030.13;;;23.71;47.91
10310;BME280;5200;43.236;27.986;2023-05-20T10:52:17;100015.94;;;23.45;45.72
10310;BME280;5200;43.236;27.986;2023-05-20T10:54:44;100021.25;;;23.52;47.46
10310;BME280;5200;43.236;27.986;2023-05-20T10:57:12;100018.63;;;23.63;46.78
10310;BME280;5200;43.236;27.986;2023-05-20T10:59:39;100020.59;;;23.75;48.07
10310;BME280;5200;43.236;27.986;2023-05-20T11:02:09;99998.50;;;23.91;47.53
10310;BME280;5200;43.236;27.986;2023-05-20T11:04:37;100007.81;;;23.89;44.93
10310;BME280;5200;43.236;27.986;2023-05-20T11:07:04;100006.84;;;24.01;44.83
10310;BME280;5200;43.236;27.986;2023-05-20T11:09:31;99999.25;;;24.29;45.54
10310;BME280;5200;43.236;27.986;2023-05-20T11:11:58;100002.44;;;24.37;44.09
10310;BME280;5200;43.236;27.986;2023-05-20T11:14:27;100010.44;;;24.44;42.15
10310;BME280;5200;43.236;27.986;2023-05-20T11:16:55;99980.56;;;24.34;44.53
10310;BME280;5200;43.236;27.986;2023-05-20T11:19:24;99987.44;;;24.60;44.41
10310;BME280;5200;43.236;27.986;2023-05-20T11:21:51;99993.09;;;24.58;45.11
10310;BME280;5200;43.236;27.986;2023-05-20T11:24:22;99999.69;;;23.95;44.84
10310;BME280;5200;43.236;27.986;2023-05-20T11:26:50;100011.88;;;23.36;47.72
10310;BME280;5200;43.236;27.986;2023-05-20T11:29:17;100003.34;;;23.20;51.42
10310;BME280;5200;43.236;27.986;2023-05-20T11:31:47;100010.06;;;23.05;50.68
10310;BME280;5200;43.236;27.986;2023-05-20T11:34:14;100018.53;;;22.76;52.84
10310;BME280;5200;43.236;27.986;2023-05-20T11:36:42;100011.97;;;22.72;55.12
10310;BME280;5200;43.236;27.986;2023-05-20T11:39:09;100009.56;;;22.57;55.72
10310;BME280;5200;43.236;27.986;2023-05-20T11:41:37;100007.53;;;22.53;58.20
10310;BME280;5200;43.236;27.986;2023-05-20T11:44:08;100021.66;;;22.42;57.29
10310;BME280;5200;43.236;27.986;2023-05-20T11:46:40;100016.28;;;22.42;58.47
10310;BME280;5200;43.236;27.986;2023-05-20T11:49:07;100002.78;;;22.23;60.38
10310;BME280;5200;43.236;27.986;2023-05-20T11:51:34;100012.94;;;22.01;59.44
10310;BME280;5200;43.236;27.986;2023-05-20T11:54:03;100000.03;;;21.85;60.76
10310;BME280;5200;43.236;27.986;2023-05-20T11:56:30;100001.78;;;22.11;62.59
10310;BME280;5200;43.236;27.986;2023-05-20T11:58:59;99990.50;;;22.41;59.50
10310;BME280;5200;43.236;27.986;2023-05-20T12:01:29;99997.66;;;22.53;61.74
10310;BME280;5200;43.236;27.986;2023-05-20T12:03:58;99998.66;;;22.14;64.21
10310;BME280;5200;43.236;27.986;2023-05-20T12:06:24;99988.78;;;22.21;63.24
10310;BME280;5200;43.236;27.986;2023-05-20T12:08:51;99967.69;;;22.31;58.69
10310;BME280;5200;43.236;27.986;2023-05-20T12:11:19;99964.31;;;22.43;55.75
10310;BME280;5200;43.236;27.986;2023-05-20T12:13:47;99977.72;;;22.43;53.94
10310;BME280;5200;43.236;27.986;2023-05-20T12:16:14;99979.25;;;22.57;56.20
10310;BME280;5200;43.236;27.986;2023-05-20T12:18:40;99967.06;;;22.61;49.16
10310;BME280;5200;43.236;27.986;2023-05-20T12:21:07;99973.25;;;22.62;49.90
10310;BME280;5200;43.236;27.986;2023-05-20T12:23:34;99967.88;;;22.62;50.27
10310;BME280;5200;43.236;27.986;2023-05-20T12:26:01;99964.44;;;22.54;47.39
10310;BME280;5200;43.236;27.986;2023-05-20T12:28:29;99924.00;;;22.24;47.37
10310;BME280;5200;43.236;27.986;2023-05-20T12:30:57;99964.34;;;22.36;46.70
10310;BME280;5200;43.236;27.986;2023-05-20T12:33:24;99947.63;;;22.02;47.15
10310;BME280;5200;43.236;27.986;2023-05-20T12:35:52;99954.38;;;22.11;47.73
10310;BME280;5200;43.236;27.986;2023-05-20T12:38:18;99937.66;;;22.16;47.18
10310;BME280;5200;43.236;27.986;2023-05-20T12:40:45;99952.88;;;22.22;47.65
10310;BME280;5200;43.236;27.986;2023-05-20T12:43:12;99955.31;;;22.30;45.86
10310;BME280;5200;43.236;27.986;2023-05-20T12:45:40;99937.97;;;22.33;46.52
10310;BME280;5200;43.236;27.986;2023-05-20T12:48:07;99934.50;;;22.57;45.95